Dauntless Aviation
Airports Europe Spain
LECU
ECV

Cuatro Vientos Airport

Madrid, SPAIN

Airport Info
Suggest Updated Information for this Airport

Location

Latitude / Longitude: 40°22'14"N / 3°47'6"W
  40°22.242'N / 3°47.106'W
  40.3707 / -3.7851

Runway Information

Runway 10 /28

Dimensions: 4921 x 98 ft.
Surface: ASP
 
Runway 10
Runway 28
Latitude: 40.371122 40.370233
Longitude: -3.793928 -3.776353
Elevation: 2267 ft. 2267 ft.
Runway true heading: 91.3 271.3
 

Runway 10L/28R

Dimensions: 3697 x 148 ft.
Surface: ASP
 
Runway 10L
Runway 28R
Latitude: 40.372342 40.371622
Longitude: -3.790706 -3.777589
Elevation: 2264 ft. 2264 ft.
Runway true heading: 91.3 271.3
 

Instrument Procedures

  Aerodrome Chart 1.1
  Aerodrome Chart 1.2
  LEVS Parking / Docking Chart 1

IAPs (Instrument Approach Procedures)

  Aerodrome Information (Textual)
  Aerodrome Obstacle Chart Rwy 1 Rwy 09
  Aerodrome Obstacle Chart Rwy 2 Rwy 27
  Visual Approach Chart 1
Satellite photo at:
Airport distance calculator
From:
Weather Reports

METAR

LEMD
12.1nm NE
LEMD 222100Z 18004KT 130V220 9999 -RA OVC050 10/08 Q1009 R88/29//95 NOSIG
LETO
15.7nm NE
LETO 222100Z 22005KT 9999 -RA OVC045 09/09 Q1009 NOSIG

TAF

LEVS
0.9nm E
TAF LEVS 221700Z 2218/2303 VRB04KT 9999 SCT025 BKN045 TEMPO 2218/2303 3000 RA SHRA BR BKN010 SCT030TCU PROB30 TEMPO 2300/2303 TSRA SCT030CB
LEGT
6.1nm SE
TAF LEGT 221700Z 2218/2303 VRB04KT 9999 SCT025 BKN045 TEMPO 2218/2303 3000 RA SHRA BR BKN010 SCT030TCU PROB30 TEMPO 2300/2303 TSRA SCT030CB
LEMD
12.1nm NE
TAF LEMD 221700Z 2218/2324 VRB04KT 9999 BKN045 TX12/2316Z TN06/2307Z TEMPO 2219/2305 3000 RA SHRA BR BKN010 SCT030TCU PROB30 TEMPO 2300/2304 TSRA SCT030CB PROB30 TEMPO 2304/2312 2000 BR BKN010 PROB40 TEMPO 2307/2318 23006G16KT
LETO
15.7nm NE
TAF LETO 221700Z 2218/2318 VRB04KT 9999 BKN045 TX12/2316Z TN06/2307Z TEMPO 2219/2305 3000 RA SHRA BR BKN010 SCT030TCU PROB30 TEMPO 2300/2304 TSRA SCT030CB PROB30 TEMPO 2304/2312 2000 BR BKN010
LECV
16.1nm N
TAF LECV 221700Z 2218/2303 VRB04KT 9999 SCT010 BKN030 PROB40 TEMPO 2218/2303 3000 RA SHRA BR BKN014 SCT030TCU PROB30 TEMPO 2218/2303 0200 FG BKN002 PROB30 TEMPO 2300/2303 TSRA SCT030CB
Safelog

 

Dauntless Aviation

© 2007-2019 Dauntless Aviation, all rights reserved
Information provided via PilotNav comes from a variety of official and unofficial data sources. As errors are possible, do not use PilotNav for primary flight planning purposes. Verify any information that you receive via PilotNav with current and canonical charts and other official documents. The material in this database is subject to database copyrights held by Dauntless Aviation and may not be copied without the express permission of Dauntless Aviation - licenses for use of part of all of this data are available for purchase; enquire via the Dauntless Aviation helpdesk. A number of mechanisms and markers exist in the database to protect against and identify infringement / copyright. Automated queries against this website are stictly prohibited, and all activity is logged and analyzed.